Time;durP1;ratioP1;P1;durP2;ratioP2;P2;SDS_P1;SDS_P2;PMS_P1;PMS_P2;Temp;Humidity;BMP_temperature;BMP_pressure;BME280_temperature;BME280_humidity;BME280_pressure;Samples;Min_cycle;Max_cycle;Signal;HPM_P1;HPM_P2
2023/05/21 00:00:36;;;;;;;17.30;8.52;;;;;;;;;;5012016;28;20441;-56
2023/05/21 00:03:02;;;;;;;16.92;9.02;;;;;;;;;;5012261;28;20033;-57
2023/05/21 00:05:28;;;;;;;18.17;9.70;;;;;;;;;;5011671;28;20033;-58
2023/05/21 00:07:54;;;;;;;15.68;7.82;;;;;;;;;;5012446;28;20505;-58
2023/05/21 00:10:20;;;;;;;16.08;8.40;;;;;;;;;;5011845;28;20077;-58
2023/05/21 00:12:46;;;;;;;17.80;8.18;;;;;;;;;;5035570;23;20022;-61
2023/05/21 00:15:12;;;;;;;16.58;8.38;;;;;;;;;;5023047;28;20041;-62
2023/05/21 00:17:38;;;;;;;16.73;7.82;;;;;;;;;;5043519;28;20036;-57
2023/05/21 00:20:06;;;;;;;17.65;8.60;;;;;;;;;;5042029;28;20041;-61
2023/05/21 00:22:35;;;;;;;16.95;9.07;;;;;;;;;;5024777;28;20032;-62
2023/05/21 00:25:01;;;;;;;17.00;9.02;;;;;;;;;;5022356;28;20423;-62
2023/05/21 00:27:27;;;;;;;18.45;8.65;;;;;;;;;;5005496;28;20026;-63
2023/05/21 00:29:53;;;;;;;16.38;8.80;;;;;;;;;;5005863;28;20018;-62
2023/05/21 00:32:19;;;;;;;16.95;9.10;;;;;;;;;;5021924;28;20379;-62
2023/05/21 00:34:45;;;;;;;18.15;9.07;;;;;;;;;;5002564;28;20032;-60
2023/05/21 00:37:14;;;;;;;16.33;9.02;;;;;;;;;;5022946;28;20113;-61
2023/05/21 00:39:40;;;;;;;17.48;8.27;;;;;;;;;;5032986;28;20021;-59
2023/05/21 00:42:06;;;;;;;16.88;8.73;;;;;;;;;;5042970;28;20037;-59
2023/05/21 00:44:33;;;;;;;18.38;8.90;;;;;;;;;;5042641;28;20034;-60
2023/05/21 00:47:00;;;;;;;19.35;8.93;;;;;;;;;;5025358;28;20021;-61
2023/05/21 00:49:27;;;;;;;18.17;8.98;;;;;;;;;;5024654;28;20024;-61
2023/05/21 00:51:53;;;;;;;19.02;8.80;;;;;;;;;;5041839;28;20093;-61
2023/05/21 00:54:20;;;;;;;17.08;8.32;;;;;;;;;;5024127;28;20029;-61
2023/05/21 00:56:47;;;;;;;18.05;9.15;;;;;;;;;;5041997;28;20026;-61
2023/05/21 00:59:15;;;;;;;17.73;8.95;;;;;;;;;;5043021;28;20127;-62
2023/05/21 01:01:42;;;;;;;20.30;8.45;;;;;;;;;;5042647;28;20036;-60
2023/05/21 01:04:08;;;;;;;18.40;9.18;;;;;;;;;;5040934;28;20076;-59
2023/05/21 01:06:34;;;;;;;18.33;8.75;;;;;;;;;;5041979;28;20485;-62
2023/05/21 01:09:01;;;;;;;17.00;8.80;;;;;;;;;;5023874;28;20021;-62
2023/05/21 01:11:47;;;;;;;16.65;8.73;;;;;;;;;;5042041;28;20037;-61
2023/05/21 01:14:14;;;;;;;17.48;8.05;;;;;;;;;;5041104;28;20038;-62
2023/05/21 01:16:45;;;;;;;18.02;8.82;;;;;;;;;;5041878;28;20029;-60
2023/05/21 01:19:15;;;;;;;17.23;9.10;;;;;;;;;;5042302;28;20048;-63
2023/05/21 01:21:44;;;;;;;19.08;8.88;;;;;;;;;;5042199;28;20482;-61
2023/05/21 01:24:10;;;;;;;;;;;;;;;;;;5033148;28;20478;-62
2023/05/21 01:26:37;;;;;;;17.40;9.32;;;;;;;;;;5022361;28;19944;-60
2023/05/21 01:29:11;;;;;;;17.27;9.07;;;;;;;;;;5022801;28;20442;-61
2023/05/21 01:31:42;;;;;;;18.88;8.77;;;;;;;;;;5005447;28;20053;-64
2023/05/21 01:34:08;;;;;;;19.42;9.45;;;;;;;;;;5022000;28;20041;-61
2023/05/21 01:36:39;;;;;;;20.00;10.13;;;;;;;;;;5005205;28;20030;-59
2023/05/21 01:39:27;;;;;;;18.27;9.32;;;;;;;;;;5022580;28;20528;-61
2023/05/21 01:41:54;;;;;;;19.15;8.93;;;;;;;;;;5022211;28;20085;-60
2023/05/21 01:44:21;;;;;;;17.35;8.93;;;;;;;;;;5020921;28;20037;-62
2023/05/21 01:46:48;;;;;;;18.80;9.43;;;;;;;;;;5021235;28;20026;-62
2023/05/21 01:49:15;;;;;;;18.30;9.50;;;;;;;;;;5021130;28;20076;-62
2023/05/21 01:51:41;;;;;;;20.02;9.85;;;;;;;;;;5004124;28;20026;-60
2023/05/21 01:54:07;;;;;;;19.10;9.50;;;;;;;;;;5020675;28;20026;-63
2023/05/21 01:56:35;;;;;;;17.40;8.88;;;;;;;;;;5011832;28;20038;-62
2023/05/21 01:59:01;;;;;;;17.25;9.10;;;;;;;;;;5021028;28;20053;-62
2023/05/21 02:01:31;;;;;;;19.75;9.38;;;;;;;;;;5003731;28;20034;-62
2023/05/21 02:03:57;;;;;;;17.75;8.80;;;;;;;;;;5020079;28;20037;-62
2023/05/21 02:06:23;;;;;;;21.27;9.60;;;;;;;;;;5020662;28;20104;-62
2023/05/21 02:08:49;;;;;;;22.88;9.93;;;;;;;;;;5020030;28;20105;-59
2023/05/21 02:11:15;;;;;;;18.42;8.82;;;;;;;;;;5019732;28;20049;-60
2023/05/21 02:13:41;;;;;;;18.08;8.57;;;;;;;;;;5001809;28;20034;-62
2023/05/21 02:16:13;;;;;;;19.90;9.10;;;;;;;;;;5017119;28;20025;-62
2023/05/21 02:18:42;;;;;;;18.73;9.82;;;;;;;;;;5016979;28;20497;-62
2023/05/21 02:21:09;;;;;;;17.55;8.85;;;;;;;;;;5018357;28;20080;-63
2023/05/21 02:23:35;;;;;;;20.05;9.88;;;;;;;;;;5002553;28;20096;-60
2023/05/21 02:26:01;;;;;;;19.48;9.15;;;;;;;;;;5019733;28;20082;-62
2023/05/21 02:28:28;;;;;;;19.38;9.60;;;;;;;;;;5018802;28;20266;-60
2023/05/21 02:30:54;;;;;;;20.15;9.60;;;;;;;;;;5019262;28;20059;-59
2023/05/21 02:33:20;;;;;;;19.20;9.73;;;;;;;;;;5019062;28;20026;-62
2023/05/21 02:35:47;;;;;;;19.17;9.80;;;;;;;;;;5019340;28;20399;-59
2023/05/21 02:38:13;;;;;;;20.42;9.98;;;;;;;;;;5000767;28;20040;-62
2023/05/21 02:40:39;;;;;;;20.35;9.73;;;;;;;;;;5001718;28;20030;-54
2023/05/21 02:43:05;;;;;;;18.13;9.27;;;;;;;;;;5019913;28;20390;-60
2023/05/21 02:45:31;;;;;;;24.08;9.50;;;;;;;;;;5018324;28;20113;-61
2023/05/21 02:47:57;;;;;;;17.80;9.65;;;;;;;;;;5016893;28;20127;-61
2023/05/21 02:50:23;;;;;;;17.75;8.65;;;;;;;;;;5017773;28;20030;-62
2023/05/21 02:52:49;;;;;;;19.67;9.18;;;;;;;;;;5000127;28;20029;-60
2023/05/21 02:55:15;;;;;;;20.35;9.80;;;;;;;;;;5017656;28;20084;-63
2023/05/21 02:57:41;;;;;;;23.77;13.77;;;;;;;;;;5018531;28;20045;-62
2023/05/21 03:00:08;;;;;;;27.33;16.15;;;;;;;;;;5000306;28;20061;-63
2023/05/21 03:02:34;;;;;;;24.17;15.55;;;;;;;;;;5019098;28;20038;-60
2023/05/21 03:05:00;;;;;;;36.60;25.55;;;;;;;;;;5018608;28;20065;-63
2023/05/21 03:07:26;;;;;;;18.83;10.32;;;;;;;;;;5018783;28;20033;-61
2023/05/21 03:09:52;;;;;;;19.58;9.13;;;;;;;;;;5018809;28;20018;-62
2023/05/21 03:12:18;;;;;;;20.35;9.55;;;;;;;;;;5018958;28;20096;-63
2023/05/21 03:14:45;;;;;;;19.20;10.02;;;;;;;;;;5016617;28;20347;-62
2023/05/21 03:17:12;;;;;;;17.77;9.65;;;;;;;;;;5016842;28;20029;-61
2023/05/21 03:19:39;;;;;;;19.20;9.70;;;;;;;;;;5016786;28;20052;-62
2023/05/21 03:22:05;;;;;;;17.85;9.27;;;;;;;;;;4999380;28;20101;-61
2023/05/21 03:24:31;;;;;;;18.92;10.02;;;;;;;;;;4998747;28;20033;-61
2023/05/21 03:26:59;;;;;;;19.58;9.90;;;;;;;;;;5016704;28;20676;-62
2023/05/21 03:29:26;;;;;;;16.85;8.88;;;;;;;;;;5016488;28;20462;-62
2023/05/21 03:31:52;;;;;;;20.88;9.65;;;;;;;;;;4998355;28;20577;-61
2023/05/21 03:34:19;;;;;;;18.98;9.77;;;;;;;;;;5014984;28;20029;-63
2023/05/21 03:36:45;;;;;;;19.08;9.88;;;;;;;;;;5015888;28;20029;-63
2023/05/21 03:39:11;;;;;;;19.45;9.88;;;;;;;;;;4998663;28;20148;-61
2023/05/21 03:41:37;;;;;;;21.08;10.60;;;;;;;;;;5017326;28;20018;-61
2023/05/21 03:44:03;;;;;;;19.27;10.07;;;;;;;;;;4997575;28;20087;-62
2023/05/21 03:46:29;;;;;;;18.48;10.45;;;;;;;;;;5014742;28;20028;-62
2023/05/21 03:48:59;;;;;;;18.77;10.45;;;;;;;;;;5014816;28;20022;-63
2023/05/21 03:51:26;;;;;;;21.55;10.88;;;;;;;;;;4997782;28;20018;-64
2023/05/21 03:53:52;;;;;;;20.23;10.73;;;;;;;;;;4997639;28;20541;-61
2023/05/21 03:56:18;;;;;;;19.77;10.32;;;;;;;;;;5015862;28;20054;-62
2023/05/21 03:58:44;;;;;;;23.92;10.75;;;;;;;;;;4998622;28;20061;-63
2023/05/21 04:01:10;;;;;;;17.88;10.38;;;;;;;;;;4998980;28;20120;-62
2023/05/21 04:03:36;;;;;;;20.58;10.57;;;;;;;;;;4998887;28;20022;-62
2023/05/21 04:06:03;;;;;;;18.48;11.00;;;;;;;;;;5016962;28;20026;-62
2023/05/21 04:08:29;;;;;;;21.80;10.30;;;;;;;;;;5016231;28;20061;-62
2023/05/21 04:10:55;;;;;;;18.42;10.18;;;;;;;;;;4999215;28;20028;-63
2023/05/21 04:13:21;;;;;;;20.05;11.02;;;;;;;;;;5016215;28;20109;-64
2023/05/21 04:15:47;;;;;;;21.48;10.77;;;;;;;;;;4999069;28;20124;-59
2023/05/21 04:18:16;;;;;;;18.30;10.13;;;;;;;;;;5017185;28;20022;-64
2023/05/21 04:20:43;;;;;;;21.23;10.40;;;;;;;;;;5017248;28;20034;-62
2023/05/21 04:23:09;;;;;;;19.65;10.30;;;;;;;;;;4998668;28;20462;-57
2023/05/21 04:25:35;;;;;;;18.67;10.85;;;;;;;;;;5016999;28;20030;-61
2023/05/21 04:28:01;;;;;;;19.75;11.25;;;;;;;;;;4999681;28;20029;-62
2023/05/21 04:30:27;;;;;;;20.55;10.93;;;;;;;;;;5000180;28;20430;-61
2023/05/21 04:32:53;;;;;;;18.25;10.70;;;;;;;;;;5018084;28;20072;-62
2023/05/21 04:35:19;;;;;;;21.08;10.70;;;;;;;;;;5000244;28;20037;-61
2023/05/21 04:37:45;;;;;;;21.90;11.82;;;;;;;;;;4999174;28;20414;-61
2023/05/21 04:40:17;;;;;;;19.27;10.38;;;;;;;;;;4999623;28;20136;-61
2023/05/21 04:42:43;;;;;;;19.10;10.55;;;;;;;;;;4998993;28;20026;-60
2023/05/21 04:45:10;;;;;;;17.95;10.30;;;;;;;;;;5017343;28;20022;-61
2023/05/21 04:47:36;;;;;;;19.20;10.63;;;;;;;;;;5017020;28;20030;-59
2023/05/21 04:50:03;;;;;;;17.80;10.30;;;;;;;;;;5011960;28;20033;-62
2023/05/21 04:52:29;;;;;;;19.42;11.00;;;;;;;;;;5016332;28;20026;-61
2023/05/21 04:54:56;;;;;;;20.08;11.02;;;;;;;;;;4998429;28;20635;-61
2023/05/21 04:57:23;;;;;;;19.73;11.18;;;;;;;;;;5015982;28;20022;-61
2023/05/21 04:59:49;;;;;;;23.10;13.17;;;;;;;;;;5014922;28;20025;-60
2023/05/21 05:02:15;;;;;;;18.98;10.88;;;;;;;;;;5020073;28;20025;-63
2023/05/21 05:04:42;;;;;;;19.20;10.18;;;;;;;;;;5002529;28;20026;-63
2023/05/21 05:07:08;;;;;;;21.55;11.32;;;;;;;;;;5019917;28;20068;-62
2023/05/21 05:09:34;;;;;;;18.98;10.50;;;;;;;;;;5020363;28;20371;-62
2023/05/21 05:12:00;;;;;;;19.90;11.23;;;;;;;;;;5019010;28;20030;-63
2023/05/21 05:14:26;;;;;;;18.13;10.77;;;;;;;;;;5018674;28;20030;-64
2023/05/21 05:16:52;;;;;;;21.27;11.13;;;;;;;;;;5011705;28;20087;-63
2023/05/21 05:19:18;;;;;;;19.48;10.48;;;;;;;;;;5001106;28;20030;-63
2023/05/21 05:21:44;;;;;;;20.05;11.45;;;;;;;;;;5019821;28;20036;-61
2023/05/21 05:24:10;;;;;;;20.38;11.25;;;;;;;;;;5019663;28;20033;-62
2023/05/21 05:26:36;;;;;;;21.02;11.73;;;;;;;;;;5019216;28;20036;-61
2023/05/21 05:29:02;;;;;;;20.65;12.50;;;;;;;;;;5001487;28;20084;-62
2023/05/21 05:31:28;;;;;;;21.50;13.13;;;;;;;;;;5001748;28;20089;-62
2023/05/21 05:33:54;;;;;;;20.40;11.80;;;;;;;;;;5019571;28;20057;-60
2023/05/21 05:36:21;;;;;;;20.58;11.20;;;;;;;;;;5018799;28;20079;-60
2023/05/21 05:38:47;;;;;;;19.15;10.90;;;;;;;;;;5019557;28;20510;-61
2023/05/21 05:41:13;;;;;;;19.73;11.50;;;;;;;;;;5019128;28;20101;-61
2023/05/21 05:43:39;;;;;;;20.65;11.63;;;;;;;;;;5001601;28;20089;-62
2023/05/21 05:46:05;;;;;;;19.75;11.18;;;;;;;;;;5018753;28;20108;-60
2023/05/21 05:48:31;;;;;;;21.13;11.23;;;;;;;;;;5018661;28;20018;-60
2023/05/21 05:50:57;;;;;;;25.75;13.27;;;;;;;;;;5000895;28;20037;-62
2023/05/21 05:53:23;;;;;;;20.35;12.10;;;;;;;;;;5001152;28;20047;-62
2023/05/21 05:55:49;;;;;;;19.88;11.23;;;;;;;;;;5018235;28;20032;-62
2023/05/21 05:58:15;;;;;;;19.85;11.98;;;;;;;;;;5018226;28;20502;-60
2023/05/21 06:00:41;;;;;;;19.98;11.55;;;;;;;;;;5017743;28;20037;-60
2023/05/21 06:03:07;;;;;;;18.13;11.57;;;;;;;;;;5017379;28;20045;-62
2023/05/21 06:05:33;;;;;;;20.48;11.07;;;;;;;;;;5017724;28;20026;-63
2023/05/21 06:07:59;;;;;;;20.15;11.93;;;;;;;;;;5018340;28;20065;-63
2023/05/21 06:10:25;;;;;;;19.85;11.60;;;;;;;;;;5018842;28;20096;-63
2023/05/21 06:12:51;;;;;;;21.08;12.85;;;;;;;;;;5016291;28;20041;-58
2023/05/21 06:15:18;;;;;;;20.55;11.80;;;;;;;;;;5043823;22;20056;-59
2023/05/21 06:17:44;;;;;;;23.08;14.63;;;;;;;;;;5015871;28;20117;-56
2023/05/21 06:20:10;;;;;;;19.65;12.50;;;;;;;;;;5033602;28;20029;-58
2023/05/21 06:22:36;;;;;;;20.50;12.30;;;;;;;;;;5033593;28;20036;-57
2023/05/21 06:25:03;;;;;;;25.42;12.65;;;;;;;;;;5032663;28;20017;-57
2023/05/21 06:27:29;;;;;;;19.27;11.85;;;;;;;;;;5033183;28;20021;-57
2023/05/21 06:29:56;;;;;;;22.02;13.68;;;;;;;;;;5033282;28;20022;-58
2023/05/21 06:32:22;;;;;;;18.83;12.45;;;;;;;;;;5015341;28;20025;-56
2023/05/21 06:34:48;;;;;;;21.58;11.55;;;;;;;;;;5032840;28;20052;-59
2023/05/21 06:37:19;;;;;;;20.15;11.88;;;;;;;;;;5033578;28;20473;-58
2023/05/21 06:39:45;;;;;;;19.55;11.70;;;;;;;;;;5033075;28;20366;-59
2023/05/21 06:42:11;;;;;;;19.50;11.48;;;;;;;;;;5032995;28;20026;-55
2023/05/21 06:44:37;;;;;;;20.08;11.98;;;;;;;;;;5032746;28;20033;-60
2023/05/21 06:47:03;;;;;;;20.75;12.02;;;;;;;;;;4998220;28;20030;-59
2023/05/21 06:49:29;;;;;;;19.88;12.05;;;;;;;;;;4995554;28;20029;-58
2023/05/21 06:51:55;;;;;;;20.10;11.82;;;;;;;;;;4995473;28;20041;-60
2023/05/21 06:54:21;;;;;;;18.35;11.25;;;;;;;;;;5012665;28;20026;-54
2023/05/21 06:56:47;;;;;;;18.70;11.30;;;;;;;;;;5013025;28;20033;-57
2023/05/21 06:59:13;;;;;;;20.75;12.05;;;;;;;;;;4995506;28;20026;-59
2023/05/21 07:01:41;;;;;;;21.35;12.85;;;;;;;;;;5012831;28;20482;-60
2023/05/21 07:04:07;;;;;;;21.45;12.98;;;;;;;;;;4994674;28;20041;-61
2023/05/21 07:06:34;;;;;;;22.90;11.18;;;;;;;;;;5007172;28;20026;-60
2023/05/21 07:09:00;;;;;;;19.10;11.25;;;;;;;;;;4995097;28;20500;-53
2023/05/21 07:11:27;;;;;;;20.42;11.60;;;;;;;;;;4995066;28;20502;-58
2023/05/21 07:13:55;;;;;;;19.23;11.20;;;;;;;;;;4994686;28;20076;-60
2023/05/21 07:16:21;;;;;;;21.10;13.35;;;;;;;;;;4995352;28;20030;-56
2023/05/21 07:18:47;;;;;;;24.63;15.85;;;;;;;;;;5012479;28;20029;-58
2023/05/21 07:21:13;;;;;;;19.45;12.40;;;;;;;;;;5012978;28;20390;-58
2023/05/21 07:23:39;;;;;;;19.75;12.23;;;;;;;;;;4994772;28;20021;-58
2023/05/21 07:26:05;;;;;;;20.67;13.02;;;;;;;;;;5012425;28;20025;-58
2023/05/21 07:28:31;;;;;;;23.33;12.93;;;;;;;;;;5013152;28;20017;-59
2023/05/21 07:30:57;;;;;;;24.65;13.95;;;;;;;;;;5013011;28;20493;-56
2023/05/21 07:33:23;;;;;;;18.70;11.57;;;;;;;;;;5012627;28;20025;-54
2023/05/21 07:35:50;;;;;;;18.73;11.95;;;;;;;;;;5012060;28;20021;-54
2023/05/21 07:38:16;;;;;;;19.92;12.77;;;;;;;;;;4996862;28;20112;-61
2023/05/21 07:40:42;;;;;;;19.95;12.18;;;;;;;;;;5020735;28;20022;-59
2023/05/21 07:43:08;;;;;;;20.15;12.68;;;;;;;;;;5017495;28;20025;-59
2023/05/21 07:45:34;;;;;;;18.60;12.05;;;;;;;;;;5012605;28;20026;-58
2023/05/21 07:48:00;;;;;;;19.60;11.98;;;;;;;;;;5012158;28;20061;-59
2023/05/21 07:50:26;;;;;;;19.73;12.18;;;;;;;;;;5012049;28;20018;-52
2023/05/21 07:52:52;;;;;;;20.85;13.15;;;;;;;;;;5012124;28;20030;-58
2023/05/21 07:55:18;;;;;;;23.35;13.98;;;;;;;;;;5011651;28;20032;-60
2023/05/21 07:57:44;;;;;;;21.60;12.50;;;;;;;;;;4994102;28;20413;-58
2023/05/21 08:00:14;;;;;;;20.83;11.70;;;;;;;;;;5009459;28;20034;-59
2023/05/21 08:02:40;;;;;;;21.00;12.05;;;;;;;;;;5031608;28;20021;-55
2023/05/21 08:05:06;;;;;;;18.73;11.70;;;;;;;;;;5031143;28;20045;-57
2023/05/21 08:07:32;;;;;;;23.73;12.80;;;;;;;;;;5031545;28;20064;-56
2023/05/21 08:09:58;;;;;;;19.77;12.18;;;;;;;;;;5031560;28;20025;-56
2023/05/21 08:12:24;;;;;;;21.67;13.80;;;;;;;;;;5031533;28;20025;-53
2023/05/21 08:14:50;;;;;;;19.25;12.52;;;;;;;;;;5031363;28;20034;-56
2023/05/21 08:17:17;;;;;;;20.55;12.75;;;;;;;;;;5031554;28;20400;-57
2023/05/21 08:19:43;;;;;;;23.40;13.18;;;;;;;;;;5031354;28;20477;-56
2023/05/21 08:22:09;;;;;;;21.75;13.25;;;;;;;;;;5031512;28;20389;-58
2023/05/21 08:24:35;;;;;;;19.95;12.25;;;;;;;;;;5030938;28;20049;-58
2023/05/21 08:27:01;;;;;;;20.80;12.43;;;;;;;;;;5013647;28;20077;-57
2023/05/21 08:29:27;;;;;;;23.58;13.20;;;;;;;;;;5031154;28;20072;-56
2023/05/21 08:31:53;;;;;;;21.73;12.45;;;;;;;;;;5031171;28;20113;-55
2023/05/21 08:34:19;;;;;;;20.27;13.05;;;;;;;;;;5013074;28;20096;-58
2023/05/21 08:36:46;;;;;;;22.23;13.18;;;;;;;;;;5034220;28;20450;-57
2023/05/21 08:39:12;;;;;;;22.57;12.83;;;;;;;;;;5035287;28;20018;-57
2023/05/21 08:41:39;;;;;;;19.63;12.73;;;;;;;;;;5034896;28;20748;-53
2023/05/21 08:44:10;;;;;;;19.65;13.05;;;;;;;;;;5016800;28;20068;-57
2023/05/21 08:46:39;;;;;;;28.42;13.75;;;;;;;;;;5017344;28;20025;-52
2023/05/21 08:49:07;;;;;;;20.40;12.95;;;;;;;;;;5034866;28;20041;-51
2023/05/21 08:51:33;;;;;;;21.52;14.15;;;;;;;;;;5006379;28;20085;-60
2023/05/21 08:54:01;;;;;;;19.83;12.68;;;;;;;;;;5014835;28;20164;-53
2023/05/21 08:56:27;;;;;;;20.45;13.25;;;;;;;;;;5017188;28;20550;-56
2023/05/21 08:58:53;;;;;;;22.20;14.60;;;;;;;;;;5007487;28;20022;-56
2023/05/21 09:01:19;;;;;;;19.92;13.35;;;;;;;;;;5007359;28;20034;-55
2023/05/21 09:03:46;;;;;;;21.92;13.57;;;;;;;;;;5022935;28;20033;-58
2023/05/21 09:06:12;;;;;;;20.48;14.07;;;;;;;;;;5021082;28;20029;-53
2023/05/21 09:08:43;;;;;;;21.05;14.15;;;;;;;;;;5019355;28;20018;-54
2023/05/21 09:11:09;;;;;;;23.10;14.52;;;;;;;;;;5020754;28;20049;-55
2023/05/21 09:13:37;;;;;;;23.70;16.67;;;;;;;;;;5023672;28;20091;-55
2023/05/21 09:16:03;;;;;;;20.15;13.40;;;;;;;;;;5024813;28;20407;-54
2023/05/21 09:18:29;;;;;;;23.70;14.35;;;;;;;;;;5014163;28;20045;-53
2023/05/21 09:20:55;;;;;;;22.13;14.07;;;;;;;;;;5014325;28;20025;-58
2023/05/21 09:23:21;;;;;;;20.27;13.75;;;;;;;;;;4996297;28;20037;-48
2023/05/21 09:25:48;;;;;;;21.35;13.88;;;;;;;;;;5017008;28;20026;-51
2023/05/21 09:28:15;;;;;;;21.92;15.35;;;;;;;;;;5010113;28;20109;-53
2023/05/21 09:30:47;;;;;;;21.75;14.60;;;;;;;;;;5025172;28;20029;-57
2023/05/21 09:33:24;;;;;;;19.83;13.45;;;;;;;;;;5014103;28;20364;-58
2023/05/21 09:35:50;;;;;;;29.63;22.20;;;;;;;;;;5013847;28;20058;-55
2023/05/21 09:38:16;;;;;;;25.80;15.60;;;;;;;;;;4992291;28;20445;-54
2023/05/21 09:40:46;;;;;;;22.10;15.75;;;;;;;;;;5010633;28;20084;-57
2023/05/21 09:43:15;;;;;;;23.67;17.15;;;;;;;;;;4996271;28;20052;-56
2023/05/21 09:45:54;;;;;;;21.58;15.68;;;;;;;;;;5013230;28;20026;-57
2023/05/21 09:48:35;;;;;;;22.70;16.00;;;;;;;;;;5013672;28;20041;-58
2023/05/21 09:51:10;;;;;;;22.48;16.38;;;;;;;;;;4983283;28;20018;-53
2023/05/21 09:53:39;;;;;;;22.45;15.68;;;;;;;;;;5018487;28;20638;-52
2023/05/21 09:56:05;;;;;;;21.70;16.10;;;;;;;;;;5013114;28;20117;-57
2023/05/21 09:58:32;;;;;;;25.63;16.75;;;;;;;;;;5013640;28;20034;-58
2023/05/21 10:00:58;;;;;;;22.60;16.10;;;;;;;;;;5013832;28;20023;-59
2023/05/21 10:03:26;;;;;;;24.58;16.20;;;;;;;;;;5013523;28;20095;-52
2023/05/21 10:05:53;;;;;;;21.98;16.42;;;;;;;;;;5013238;28;20116;-54
2023/05/21 10:08:21;;;;;;;23.17;17.70;;;;;;;;;;5014269;28;20469;-52
2023/05/21 10:10:47;;;;;;;23.30;16.67;;;;;;;;;;5013730;28;20041;-58
2023/05/21 10:13:14;;;;;;;22.27;16.83;;;;;;;;;;4996027;28;20030;-57
2023/05/21 10:15:49;;;;;;;23.33;17.10;;;;;;;;;;5013135;28;20092;-57
2023/05/21 10:18:17;;;;;;;24.42;16.65;;;;;;;;;;5013780;28;20038;-51
2023/05/21 10:20:43;;;;;;;22.73;16.80;;;;;;;;;;4986459;28;20112;-56
2023/05/21 10:23:09;;;;;;;24.52;18.08;;;;;;;;;;4999316;28;20103;-54
2023/05/21 10:25:36;;;;;;;25.73;17.45;;;;;;;;;;5006169;28;20072;-54
2023/05/21 10:28:02;;;;;;;23.70;18.02;;;;;;;;;;5011413;28;20408;-57
2023/05/21 10:30:29;;;;;;;24.02;18.13;;;;;;;;;;5011209;28;20030;-56
2023/05/21 10:32:55;;;;;;;24.10;19.13;;;;;;;;;;5004958;28;20057;-54
2023/05/21 10:35:22;;;;;;;22.70;18.25;;;;;;;;;;5019067;28;20464;-57
2023/05/21 10:37:48;;;;;;;22.88;18.35;;;;;;;;;;5021935;28;20022;-57
2023/05/21 10:40:14;;;;;;;23.35;18.45;;;;;;;;;;5026504;28;20513;-55
2023/05/21 10:42:43;;;;;;;22.42;17.60;;;;;;;;;;5020932;28;20029;-57
2023/05/21 10:45:30;;;;;;;22.48;18.83;;;;;;;;;;5006220;28;20435;-52
2023/05/21 10:48:00;;;;;;;24.08;18.60;;;;;;;;;;5022637;28;20014;-57
2023/05/21 10:50:39;;;;;;;27.17;18.60;;;;;;;;;;5010518;28;20014;-54
2023/05/21 10:53:10;;;;;;;23.35;18.55;;;;;;;;;;5003043;28;20089;-53
2023/05/21 10:55:48;;;;;;;23.27;18.15;;;;;;;;;;5023309;28;20636;-54
2023/05/21 10:58:14;;;;;;;;;;;;;;;;;;5003029;28;20034;-56
2023/05/21 11:00:41;;;;;;;23.48;19.05;;;;;;;;;;5020611;28;19975;-54
2023/05/21 11:03:10;;;;;;;22.60;18.70;;;;;;;;;;5008635;28;20490;-57
2023/05/21 11:05:40;;;;;;;22.85;18.27;;;;;;;;;;5011701;28;20453;-54
2023/05/21 11:08:18;;;;;;;25.13;19.40;;;;;;;;;;4995715;28;20028;-52
2023/05/21 11:10:44;;;;;;;;;;;;;;;;;;4995261;28;20018;-54
2023/05/21 11:13:12;;;;;;;25.85;19.48;;;;;;;;;;5010575;28;19978;-55
2023/05/21 11:15:57;;;;;;;23.60;19.07;;;;;;;;;;4993164;28;20034;-54
2023/05/21 11:18:23;;;;;;;21.48;18.25;;;;;;;;;;5011849;28;20276;-50
2023/05/21 11:20:52;;;;;;;23.30;19.20;;;;;;;;;;5012061;28;20029;-56
2023/05/21 11:23:20;;;;;;;24.98;19.40;;;;;;;;;;5011944;28;20057;-56
2023/05/21 11:26:00;;;;;;;24.20;18.70;;;;;;;;;;4993962;28;20038;-58
2023/05/21 11:28:32;;;;;;;24.83;19.75;;;;;;;;;;5011625;28;20079;-58
2023/05/21 11:31:18;;;;;;;25.90;19.52;;;;;;;;;;4994442;28;20018;-55
2023/05/21 11:33:46;;;;;;;22.35;18.38;;;;;;;;;;5011894;28;20030;-55
2023/05/21 11:36:13;;;;;;;25.83;19.40;;;;;;;;;;5011527;28;20021;-54
2023/05/21 11:38:39;;;;;;;26.63;20.20;;;;;;;;;;5011781;28;20367;-56
2023/05/21 11:41:05;;;;;;;28.08;20.20;;;;;;;;;;5011728;28;20033;-54
2023/05/21 11:43:31;;;;;;;22.27;18.02;;;;;;;;;;5011767;28;20421;-53
2023/05/21 11:45:57;;;;;;;24.55;19.00;;;;;;;;;;5011718;28;20140;-56
2023/05/21 11:48:26;;;;;;;23.70;18.52;;;;;;;;;;4994105;28;20022;-59
2023/05/21 11:50:52;;;;;;;22.75;19.85;;;;;;;;;;5011423;28;20033;-55
2023/05/21 11:53:18;;;;;;;24.58;20.45;;;;;;;;;;5011530;28;20022;-56
2023/05/21 11:55:46;;;;;;;23.23;18.38;;;;;;;;;;4993784;28;20032;-57
2023/05/21 11:58:13;;;;;;;26.05;20.27;;;;;;;;;;5011597;28;20408;-54
2023/05/21 12:00:39;;;;;;;23.13;18.98;;;;;;;;;;4994175;28;20037;-53
2023/05/21 12:03:07;;;;;;;24.55;20.15;;;;;;;;;;5011700;28;20096;-58
2023/05/21 12:05:48;;;;;;;22.00;19.40;;;;;;;;;;5011223;28;20122;-58
2023/05/21 12:08:24;;;;;;;24.42;20.20;;;;;;;;;;5011712;28;20029;-53
2023/05/21 12:10:54;;;;;;;25.95;21.33;;;;;;;;;;5015316;28;20410;-56
2023/05/21 12:13:21;;;;;;;24.40;19.98;;;;;;;;;;5015399;28;20022;-56
2023/05/21 12:15:47;;;;;;;24.73;19.73;;;;;;;;;;5050136;23;20045;-57
2023/05/21 12:18:15;;;;;;;24.08;19.15;;;;;;;;;;5053849;28;20119;-56
2023/05/21 12:20:41;;;;;;;;;;;;;;;;;;5054162;28;20041;-58
2023/05/21 12:23:07;;;;;;;24.38;18.50;;;;;;;;;;5053851;28;19955;-59
2023/05/21 12:25:33;;;;;;;22.98;19.30;;;;;;;;;;5053097;28;20054;-59
2023/05/21 12:28:00;;;;;;;24.00;19.83;;;;;;;;;;5035811;28;20025;-57
2023/05/21 12:30:27;;;;;;;26.63;20.30;;;;;;;;;;5053815;28;20024;-58
2023/05/21 12:32:57;;;;;;;22.52;19.10;;;;;;;;;;5035794;28;20085;-57
2023/05/21 12:35:23;;;;;;;24.35;20.58;;;;;;;;;;5053316;28;20471;-60
2023/05/21 12:37:49;;;;;;;24.13;20.33;;;;;;;;;;5053683;28;20032;-58
2023/05/21 12:40:16;;;;;;;25.77;20.33;;;;;;;;;;5053510;28;20083;-56
2023/05/21 12:42:43;;;;;;;24.08;19.88;;;;;;;;;;5053185;28;20029;-58
2023/05/21 12:45:09;;;;;;;21.88;18.95;;;;;;;;;;5052809;28;20096;-59
2023/05/21 12:47:35;;;;;;;24.75;19.25;;;;;;;;;;5035164;28;20021;-60
2023/05/21 12:50:02;;;;;;;24.48;19.20;;;;;;;;;;5035426;28;20433;-58
2023/05/21 12:52:31;;;;;;;23.23;19.08;;;;;;;;;;5053325;28;20021;-60
2023/05/21 12:54:58;;;;;;;23.63;20.88;;;;;;;;;;5052735;28;20381;-57
2023/05/21 12:57:28;;;;;;;22.70;19.60;;;;;;;;;;5053415;28;20035;-55
2023/05/21 12:59:55;;;;;;;23.17;19.42;;;;;;;;;;5053149;28;20031;-58
2023/05/21 13:02:21;;;;;;;22.00;19.13;;;;;;;;;;5053007;28;20029;-59
2023/05/21 13:04:48;;;;;;;24.63;21.33;;;;;;;;;;5052612;28;20032;-59
2023/05/21 13:07:15;;;;;;;22.55;20.10;;;;;;;;;;5053113;28;20048;-60
2023/05/21 13:09:41;;;;;;;24.07;21.03;;;;;;;;;;5053275;28;20021;-58
2023/05/21 13:12:07;;;;;;;23.25;19.73;;;;;;;;;;5053098;28;20021;-55
2023/05/21 13:14:33;;;;;;;25.25;20.25;;;;;;;;;;5052561;28;20087;-58
2023/05/21 13:16:59;;;;;;;24.67;21.98;;;;;;;;;;5053097;28;20033;-58
2023/05/21 13:19:25;;;;;;;24.15;20.40;;;;;;;;;;5035132;28;20021;-58
2023/05/21 13:21:51;;;;;;;23.75;20.85;;;;;;;;;;5052266;28;20491;-57
2023/05/21 13:24:17;;;;;;;24.08;19.95;;;;;;;;;;5052352;28;20036;-57
2023/05/21 13:26:43;;;;;;;24.23;20.00;;;;;;;;;;5052349;28;20437;-59
2023/05/21 13:29:13;;;;;;;23.13;19.60;;;;;;;;;;5052600;28;20032;-56
2023/05/21 13:31:39;;;;;;;28.58;20.02;;;;;;;;;;5052654;28;20021;-58
2023/05/21 13:34:06;;;;;;;23.90;20.13;;;;;;;;;;5034607;28;20029;-57
2023/05/21 13:36:32;;;;;;;22.57;18.80;;;;;;;;;;5052657;28;20021;-57
2023/05/21 13:38:58;;;;;;;23.70;19.90;;;;;;;;;;5052693;28;20032;-59
2023/05/21 13:41:24;;;;;;;23.25;19.75;;;;;;;;;;5052666;28;20027;-59
2023/05/21 13:43:50;;;;;;;22.48;19.73;;;;;;;;;;5052428;28;20100;-56
2023/05/21 13:46:16;;;;;;;23.50;19.00;;;;;;;;;;5053442;28;20021;-59
2023/05/21 13:48:42;;;;;;;24.15;19.65;;;;;;;;;;5054875;28;20036;-57
2023/05/21 13:51:08;;;;;;;23.05;19.90;;;;;;;;;;5053179;28;20028;-59
2023/05/21 13:53:34;;;;;;;21.67;19.35;;;;;;;;;;5052314;28;20029;-61
2023/05/21 13:56:00;;;;;;;24.38;21.77;;;;;;;;;;5034159;28;20120;-59
2023/05/21 13:58:27;;;;;;;23.17;20.73;;;;;;;;;;5052491;28;20029;-59
2023/05/21 14:00:53;;;;;;;23.17;20.27;;;;;;;;;;5034344;28;20203;-59
2023/05/21 14:03:19;;;;;;;23.80;20.35;;;;;;;;;;5052294;28;20049;-59
2023/05/21 14:05:47;;;;;;;23.77;21.23;;;;;;;;;;5051496;28;20029;-59
2023/05/21 14:08:15;;;;;;;24.40;21.42;;;;;;;;;;5033996;28;20048;-62
2023/05/21 14:10:41;;;;;;;22.65;20.25;;;;;;;;;;5034119;28;20035;-62
2023/05/21 14:13:07;;;;;;;25.75;21.42;;;;;;;;;;5052135;28;20099;-59
2023/05/21 14:15:33;;;;;;;23.83;21.27;;;;;;;;;;5033585;28;20475;-60
2023/05/21 14:17:59;;;;;;;23.80;21.25;;;;;;;;;;5051853;28;20029;-61
2023/05/21 14:20:25;;;;;;;22.25;19.85;;;;;;;;;;5033724;28;20092;-60